sensor_id;sensor_type;location;lat;lon;timestamp;P1;durP1;ratioP1;P2;durP2;ratioP2
6207;SDS011;3137;51.550;7.060;2022-10-16T00:00:34;3.63;;;3.33;;
6207;SDS011;3137;51.550;7.060;2022-10-16T00:03:01;8.33;;;3.50;;
6207;SDS011;3137;51.550;7.060;2022-10-16T00:05:28;2.97;;;2.97;;
6207;SDS011;3137;51.550;7.060;2022-10-16T00:07:55;3.33;;;3.33;;
6207;SDS011;3137;51.550;7.060;2022-10-16T00:10:22;2.63;;;2.63;;
6207;SDS011;3137;51.550;7.060;2022-10-16T00:12:49;3.77;;;3.47;;
6207;SDS011;3137;51.550;7.060;2022-10-16T00:15:15;2.63;;;2.53;;
6207;SDS011;3137;51.550;7.060;2022-10-16T00:17:41;3.30;;;3.20;;
6207;SDS011;3137;51.550;7.060;2022-10-16T00:20:08;3.37;;;3.03;;
6207;SDS011;3137;51.550;7.060;2022-10-16T00:22:34;3.03;;;2.83;;
6207;SDS011;3137;51.550;7.060;2022-10-16T00:25:00;2.27;;;2.27;;
6207;SDS011;3137;51.550;7.060;2022-10-16T00:27:27;3.67;;;3.47;;
6207;SDS011;3137;51.550;7.060;2022-10-16T00:29:53;4.83;;;3.00;;
6207;SDS011;3137;51.550;7.060;2022-10-16T00:32:19;4.47;;;3.20;;
6207;SDS011;3137;51.550;7.060;2022-10-16T00:34:46;4.00;;;3.53;;
6207;SDS011;3137;51.550;7.060;2022-10-16T00:37:12;2.87;;;2.53;;
6207;SDS011;3137;51.550;7.060;2022-10-16T00:39:39;3.77;;;2.30;;
6207;SDS011;3137;51.550;7.060;2022-10-16T00:42:05;5.43;;;3.17;;
6207;SDS011;3137;51.550;7.060;2022-10-16T00:47:20;2.97;;;2.83;;
6207;SDS011;3137;51.550;7.060;2022-10-16T00:49:51;2.90;;;2.80;;
6207;SDS011;3137;51.550;7.060;2022-10-16T00:52:19;2.70;;;2.70;;
6207;SDS011;3137;51.550;7.060;2022-10-16T00:54:46;2.90;;;2.80;;
6207;SDS011;3137;51.550;7.060;2022-10-16T00:57:13;2.80;;;2.80;;
6207;SDS011;3137;51.550;7.060;2022-10-16T00:59:44;3.23;;;3.13;;
6207;SDS011;3137;51.550;7.060;2022-10-16T01:02:13;3.50;;;3.30;;
6207;SDS011;3137;51.550;7.060;2022-10-16T01:04:45;2.77;;;2.77;;
6207;SDS011;3137;51.550;7.060;2022-10-16T01:07:14;2.90;;;2.70;;
6207;SDS011;3137;51.550;7.060;2022-10-16T01:12:29;2.50;;;2.50;;
6207;SDS011;3137;51.550;7.060;2022-10-16T01:15:07;2.90;;;2.63;;
6207;SDS011;3137;51.550;7.060;2022-10-16T01:17:49;2.60;;;2.60;;
6207;SDS011;3137;51.550;7.060;2022-10-16T01:24:00;2.10;;;2.10;;
6207;SDS011;3137;51.550;7.060;2022-10-16T01:28:56;1.87;;;1.87;;
6207;SDS011;3137;51.550;7.060;2022-10-16T01:31:30;4.30;;;2.03;;
6207;SDS011;3137;51.550;7.060;2022-10-16T01:34:04;2.43;;;2.27;;
6207;SDS011;3137;51.550;7.060;2022-10-16T01:36:37;5.60;;;1.60;;
6207;SDS011;3137;51.550;7.060;2022-10-16T01:39:08;3.90;;;2.17;;
6207;SDS011;3137;51.550;7.060;2022-10-16T01:41:38;5.67;;;2.33;;
6207;SDS011;3137;51.550;7.060;2022-10-16T01:44:31;1.97;;;1.97;;
6207;SDS011;3137;51.550;7.060;2022-10-16T01:46:58;2.73;;;1.90;;
6207;SDS011;3137;51.550;7.060;2022-10-16T01:49:26;2.87;;;1.80;;
6207;SDS011;3137;51.550;7.060;2022-10-16T01:51:58;3.80;;;1.83;;
6207;SDS011;3137;51.550;7.060;2022-10-16T01:54:28;2.70;;;2.53;;
6207;SDS011;3137;51.550;7.060;2022-10-16T01:56:57;1.80;;;1.70;;
6207;SDS011;3137;51.550;7.060;2022-10-16T01:59:25;2.20;;;2.10;;
6207;SDS011;3137;51.550;7.060;2022-10-16T02:01:54;3.50;;;2.43;;
6207;SDS011;3137;51.550;7.060;2022-10-16T02:04:32;7.53;;;2.10;;
6207;SDS011;3137;51.550;7.060;2022-10-16T02:07:04;2.03;;;1.93;;
6207;SDS011;3137;51.550;7.060;2022-10-16T02:09:32;3.27;;;1.97;;
6207;SDS011;3137;51.550;7.060;2022-10-16T02:11:59;2.20;;;2.20;;
6207;SDS011;3137;51.550;7.060;2022-10-16T02:14:28;2.70;;;1.97;;
6207;SDS011;3137;51.550;7.060;2022-10-16T02:16:55;2.20;;;2.20;;
6207;SDS011;3137;51.550;7.060;2022-10-16T02:19:21;2.77;;;2.77;;
6207;SDS011;3137;51.550;7.060;2022-10-16T02:21:54;2.30;;;2.30;;
6207;SDS011;3137;51.550;7.060;2022-10-16T02:24:25;2.17;;;2.17;;
6207;SDS011;3137;51.550;7.060;2022-10-16T02:27:14;2.10;;;2.00;;
6207;SDS011;3137;51.550;7.060;2022-10-16T02:29:43;3.03;;;1.90;;
6207;SDS011;3137;51.550;7.060;2022-10-16T02:32:14;2.00;;;1.97;;
6207;SDS011;3137;51.550;7.060;2022-10-16T02:34:43;1.90;;;1.90;;
6207;SDS011;3137;51.550;7.060;2022-10-16T02:37:11;2.27;;;2.27;;
6207;SDS011;3137;51.550;7.060;2022-10-16T02:39:38;3.40;;;2.33;;
6207;SDS011;3137;51.550;7.060;2022-10-16T02:42:09;3.90;;;2.33;;
6207;SDS011;3137;51.550;7.060;2022-10-16T02:44:39;2.20;;;2.20;;
6207;SDS011;3137;51.550;7.060;2022-10-16T02:47:06;2.00;;;2.00;;
6207;SDS011;3137;51.550;7.060;2022-10-16T02:49:32;2.63;;;2.53;;
6207;SDS011;3137;51.550;7.060;2022-10-16T02:51:59;3.03;;;2.83;;
6207;SDS011;3137;51.550;7.060;2022-10-16T02:54:25;2.23;;;2.23;;
6207;SDS011;3137;51.550;7.060;2022-10-16T02:56:51;4.20;;;2.13;;
6207;SDS011;3137;51.550;7.060;2022-10-16T02:59:17;2.33;;;2.33;;
6207;SDS011;3137;51.550;7.060;2022-10-16T03:01:44;2.57;;;2.37;;
6207;SDS011;3137;51.550;7.060;2022-10-16T03:04:10;2.30;;;2.30;;
6207;SDS011;3137;51.550;7.060;2022-10-16T03:06:37;2.50;;;2.50;;
6207;SDS011;3137;51.550;7.060;2022-10-16T03:09:03;2.20;;;2.13;;
6207;SDS011;3137;51.550;7.060;2022-10-16T03:11:29;2.20;;;2.20;;
6207;SDS011;3137;51.550;7.060;2022-10-16T03:13:55;2.10;;;2.00;;
6207;SDS011;3137;51.550;7.060;2022-10-16T03:16:22;2.30;;;2.30;;
6207;SDS011;3137;51.550;7.060;2022-10-16T03:18:48;2.00;;;2.00;;
6207;SDS011;3137;51.550;7.060;2022-10-16T03:21:15;2.60;;;2.40;;
6207;SDS011;3137;51.550;7.060;2022-10-16T03:23:42;2.20;;;2.20;;
6207;SDS011;3137;51.550;7.060;2022-10-16T03:26:08;1.97;;;1.97;;
6207;SDS011;3137;51.550;7.060;2022-10-16T03:28:34;1.60;;;1.60;;
6207;SDS011;3137;51.550;7.060;2022-10-16T03:31:01;2.50;;;2.50;;
6207;SDS011;3137;51.550;7.060;2022-10-16T03:33:27;1.80;;;1.80;;
6207;SDS011;3137;51.550;7.060;2022-10-16T03:35:54;1.80;;;1.80;;
6207;SDS011;3137;51.550;7.060;2022-10-16T03:38:20;2.60;;;2.60;;
6207;SDS011;3137;51.550;7.060;2022-10-16T03:40:47;1.73;;;1.73;;
6207;SDS011;3137;51.550;7.060;2022-10-16T03:43:14;2.23;;;2.20;;
6207;SDS011;3137;51.550;7.060;2022-10-16T03:45:45;4.33;;;1.70;;
6207;SDS011;3137;51.550;7.060;2022-10-16T03:48:11;2.93;;;2.00;;
6207;SDS011;3137;51.550;7.060;2022-10-16T03:50:38;2.23;;;2.23;;
6207;SDS011;3137;51.550;7.060;2022-10-16T03:53:05;2.10;;;2.10;;
6207;SDS011;3137;51.550;7.060;2022-10-16T03:55:32;2.00;;;2.00;;
6207;SDS011;3137;51.550;7.060;2022-10-16T03:57:58;2.00;;;1.90;;
6207;SDS011;3137;51.550;7.060;2022-10-16T04:00:24;2.10;;;1.67;;
6207;SDS011;3137;51.550;7.060;2022-10-16T04:02:51;1.90;;;1.90;;
6207;SDS011;3137;51.550;7.060;2022-10-16T04:05:17;2.10;;;2.03;;
6207;SDS011;3137;51.550;7.060;2022-10-16T04:07:43;2.00;;;2.00;;
6207;SDS011;3137;51.550;7.060;2022-10-16T04:10:10;2.43;;;1.73;;
6207;SDS011;3137;51.550;7.060;2022-10-16T04:12:36;1.83;;;1.83;;
6207;SDS011;3137;51.550;7.060;2022-10-16T04:15:02;2.07;;;2.07;;
6207;SDS011;3137;51.550;7.060;2022-10-16T04:17:29;1.87;;;1.87;;
6207;SDS011;3137;51.550;7.060;2022-10-16T04:19:55;1.73;;;1.73;;
6207;SDS011;3137;51.550;7.060;2022-10-16T04:22:22;3.27;;;2.23;;
6207;SDS011;3137;51.550;7.060;2022-10-16T04:24:48;4.93;;;1.80;;
6207;SDS011;3137;51.550;7.060;2022-10-16T04:27:14;1.83;;;1.83;;
6207;SDS011;3137;51.550;7.060;2022-10-16T04:29:41;1.80;;;1.80;;
6207;SDS011;3137;51.550;7.060;2022-10-16T04:32:10;1.77;;;1.77;;
6207;SDS011;3137;51.550;7.060;2022-10-16T04:34:36;1.90;;;1.90;;
6207;SDS011;3137;51.550;7.060;2022-10-16T04:37:04;2.13;;;2.13;;
6207;SDS011;3137;51.550;7.060;2022-10-16T04:39:30;2.20;;;2.20;;
6207;SDS011;3137;51.550;7.060;2022-10-16T04:41:56;1.93;;;1.93;;
6207;SDS011;3137;51.550;7.060;2022-10-16T04:44:23;1.80;;;1.80;;
6207;SDS011;3137;51.550;7.060;2022-10-16T04:46:52;2.70;;;2.70;;
6207;SDS011;3137;51.550;7.060;2022-10-16T04:49:18;1.67;;;1.67;;
6207;SDS011;3137;51.550;7.060;2022-10-16T04:51:45;3.80;;;2.27;;
6207;SDS011;3137;51.550;7.060;2022-10-16T04:54:11;1.90;;;1.90;;
6207;SDS011;3137;51.550;7.060;2022-10-16T04:56:37;2.63;;;2.63;;
6207;SDS011;3137;51.550;7.060;2022-10-16T04:59:12;1.60;;;1.60;;
6207;SDS011;3137;51.550;7.060;2022-10-16T05:01:39;2.00;;;2.00;;
6207;SDS011;3137;51.550;7.060;2022-10-16T05:04:05;2.50;;;2.40;;
6207;SDS011;3137;51.550;7.060;2022-10-16T05:06:31;2.23;;;2.23;;
6207;SDS011;3137;51.550;7.060;2022-10-16T05:08:58;2.93;;;2.20;;
6207;SDS011;3137;51.550;7.060;2022-10-16T05:11:24;1.83;;;1.80;;
6207;SDS011;3137;51.550;7.060;2022-10-16T05:13:50;1.70;;;1.70;;
6207;SDS011;3137;51.550;7.060;2022-10-16T05:16:21;1.87;;;1.87;;
6207;SDS011;3137;51.550;7.060;2022-10-16T05:18:47;2.30;;;2.30;;
6207;SDS011;3137;51.550;7.060;2022-10-16T05:21:18;2.53;;;2.37;;
6207;SDS011;3137;51.550;7.060;2022-10-16T05:23:44;2.00;;;2.00;;
6207;SDS011;3137;51.550;7.060;2022-10-16T05:26:11;3.83;;;2.17;;
6207;SDS011;3137;51.550;7.060;2022-10-16T05:28:37;2.57;;;2.57;;
6207;SDS011;3137;51.550;7.060;2022-10-16T05:31:07;1.57;;;1.57;;
6207;SDS011;3137;51.550;7.060;2022-10-16T05:33:34;1.93;;;1.93;;
6207;SDS011;3137;51.550;7.060;2022-10-16T05:36:04;1.83;;;1.83;;
6207;SDS011;3137;51.550;7.060;2022-10-16T05:38:34;2.03;;;2.03;;
6207;SDS011;3137;51.550;7.060;2022-10-16T05:41:00;1.60;;;1.60;;
6207;SDS011;3137;51.550;7.060;2022-10-16T05:43:27;1.60;;;1.60;;
6207;SDS011;3137;51.550;7.060;2022-10-16T05:45:55;3.07;;;1.57;;
6207;SDS011;3137;51.550;7.060;2022-10-16T05:48:21;1.87;;;1.87;;
6207;SDS011;3137;51.550;7.060;2022-10-16T05:50:48;1.70;;;1.60;;
6207;SDS011;3137;51.550;7.060;2022-10-16T05:53:21;1.10;;;1.10;;
6207;SDS011;3137;51.550;7.060;2022-10-16T05:55:52;3.23;;;1.97;;
6207;SDS011;3137;51.550;7.060;2022-10-16T05:58:19;5.40;;;2.20;;
6207;SDS011;3137;51.550;7.060;2022-10-16T06:00:52;3.37;;;2.03;;
6207;SDS011;3137;51.550;7.060;2022-10-16T06:03:18;2.00;;;2.00;;
6207;SDS011;3137;51.550;7.060;2022-10-16T06:05:45;1.93;;;1.90;;
6207;SDS011;3137;51.550;7.060;2022-10-16T06:08:11;2.20;;;2.20;;
6207;SDS011;3137;51.550;7.060;2022-10-16T06:10:37;1.87;;;1.87;;
6207;SDS011;3137;51.550;7.060;2022-10-16T06:13:03;1.80;;;1.80;;
6207;SDS011;3137;51.550;7.060;2022-10-16T06:15:30;5.00;;;1.63;;
6207;SDS011;3137;51.550;7.060;2022-10-16T06:17:56;1.60;;;1.60;;
6207;SDS011;3137;51.550;7.060;2022-10-16T06:20:22;3.80;;;1.60;;
6207;SDS011;3137;51.550;7.060;2022-10-16T06:22:49;2.57;;;1.80;;
6207;SDS011;3137;51.550;7.060;2022-10-16T06:25:15;2.00;;;2.00;;
6207;SDS011;3137;51.550;7.060;2022-10-16T06:27:41;2.20;;;2.20;;
6207;SDS011;3137;51.550;7.060;2022-10-16T06:30:08;1.83;;;1.83;;
6207;SDS011;3137;51.550;7.060;2022-10-16T06:32:34;1.63;;;1.63;;
6207;SDS011;3137;51.550;7.060;2022-10-16T06:35:01;2.33;;;2.23;;
6207;SDS011;3137;51.550;7.060;2022-10-16T06:37:27;2.00;;;1.90;;
6207;SDS011;3137;51.550;7.060;2022-10-16T06:39:54;1.90;;;1.90;;
6207;SDS011;3137;51.550;7.060;2022-10-16T06:42:20;2.13;;;2.10;;
6207;SDS011;3137;51.550;7.060;2022-10-16T06:44:47;1.93;;;1.90;;
6207;SDS011;3137;51.550;7.060;2022-10-16T06:47:13;2.10;;;2.00;;
6207;SDS011;3137;51.550;7.060;2022-10-16T06:49:39;1.83;;;1.83;;
6207;SDS011;3137;51.550;7.060;2022-10-16T06:52:05;2.30;;;2.30;;
6207;SDS011;3137;51.550;7.060;2022-10-16T06:54:32;2.10;;;2.10;;
6207;SDS011;3137;51.550;7.060;2022-10-16T06:57:07;1.63;;;1.63;;
6207;SDS011;3137;51.550;7.060;2022-10-16T06:59:33;2.07;;;2.00;;
6207;SDS011;3137;51.550;7.060;2022-10-16T07:02:00;1.80;;;1.80;;
6207;SDS011;3137;51.550;7.060;2022-10-16T07:04:26;1.90;;;1.87;;
6207;SDS011;3137;51.550;7.060;2022-10-16T07:06:52;2.33;;;2.33;;
6207;SDS011;3137;51.550;7.060;2022-10-16T07:09:19;2.30;;;2.30;;
6207;SDS011;3137;51.550;7.060;2022-10-16T07:11:45;2.10;;;2.10;;
6207;SDS011;3137;51.550;7.060;2022-10-16T07:14:20;2.37;;;2.27;;
6207;SDS011;3137;51.550;7.060;2022-10-16T07:16:47;2.07;;;2.07;;
6207;SDS011;3137;51.550;7.060;2022-10-16T07:19:14;1.70;;;1.70;;
6207;SDS011;3137;51.550;7.060;2022-10-16T07:21:41;2.20;;;2.20;;
6207;SDS011;3137;51.550;7.060;2022-10-16T07:24:12;2.60;;;2.43;;
6207;SDS011;3137;51.550;7.060;2022-10-16T07:26:39;1.77;;;1.77;;
6207;SDS011;3137;51.550;7.060;2022-10-16T07:29:07;1.83;;;1.77;;
6207;SDS011;3137;51.550;7.060;2022-10-16T07:31:39;2.07;;;1.93;;
6207;SDS011;3137;51.550;7.060;2022-10-16T07:34:06;2.37;;;2.27;;
6207;SDS011;3137;51.550;7.060;2022-10-16T07:36:32;2.30;;;2.13;;
6207;SDS011;3137;51.550;7.060;2022-10-16T07:38:58;4.90;;;1.97;;
6207;SDS011;3137;51.550;7.060;2022-10-16T07:41:25;2.67;;;2.53;;
6207;SDS011;3137;51.550;7.060;2022-10-16T07:43:52;2.07;;;1.90;;
6207;SDS011;3137;51.550;7.060;2022-10-16T07:46:19;2.00;;;2.00;;
6207;SDS011;3137;51.550;7.060;2022-10-16T07:48:47;3.60;;;2.17;;
6207;SDS011;3137;51.550;7.060;2022-10-16T07:51:15;2.00;;;2.00;;
6207;SDS011;3137;51.550;7.060;2022-10-16T07:53:43;3.80;;;1.80;;
6207;SDS011;3137;51.550;7.060;2022-10-16T07:56:09;2.53;;;2.10;;
6207;SDS011;3137;51.550;7.060;2022-10-16T07:58:37;1.47;;;1.43;;
6207;SDS011;3137;51.550;7.060;2022-10-16T08:01:05;1.87;;;1.87;;
6207;SDS011;3137;51.550;7.060;2022-10-16T08:03:33;1.97;;;1.97;;
6207;SDS011;3137;51.550;7.060;2022-10-16T08:06:00;12.80;;;1.73;;
6207;SDS011;3137;51.550;7.060;2022-10-16T08:08:27;1.90;;;1.90;;
6207;SDS011;3137;51.550;7.060;2022-10-16T08:10:54;2.10;;;2.00;;
6207;SDS011;3137;51.550;7.060;2022-10-16T08:13:20;2.00;;;2.00;;
6207;SDS011;3137;51.550;7.060;2022-10-16T08:15:47;2.77;;;2.07;;
6207;SDS011;3137;51.550;7.060;2022-10-16T08:18:14;1.90;;;1.90;;
6207;SDS011;3137;51.550;7.060;2022-10-16T08:20:42;2.20;;;2.10;;
6207;SDS011;3137;51.550;7.060;2022-10-16T08:23:11;2.30;;;2.17;;
6207;SDS011;3137;51.550;7.060;2022-10-16T08:25:39;2.30;;;2.30;;
6207;SDS011;3137;51.550;7.060;2022-10-16T08:28:07;1.80;;;1.80;;
6207;SDS011;3137;51.550;7.060;2022-10-16T08:30:35;1.53;;;1.53;;
6207;SDS011;3137;51.550;7.060;2022-10-16T08:33:02;1.70;;;1.70;;
6207;SDS011;3137;51.550;7.060;2022-10-16T08:35:28;1.80;;;1.80;;
6207;SDS011;3137;51.550;7.060;2022-10-16T08:37:55;2.30;;;2.10;;
6207;SDS011;3137;51.550;7.060;2022-10-16T08:43:03;2.10;;;2.10;;
6207;SDS011;3137;51.550;7.060;2022-10-16T08:45:39;2.50;;;2.40;;
6207;SDS011;3137;51.550;7.060;2022-10-16T08:48:29;9.93;;;2.10;;
6207;SDS011;3137;51.550;7.060;2022-10-16T08:50:56;2.30;;;2.30;;
6207;SDS011;3137;51.550;7.060;2022-10-16T08:53:24;5.87;;;2.20;;
6207;SDS011;3137;51.550;7.060;2022-10-16T08:55:52;2.30;;;2.20;;
6207;SDS011;3137;51.550;7.060;2022-10-16T08:58:20;2.40;;;2.30;;
6207;SDS011;3137;51.550;7.060;2022-10-16T09:00:50;4.57;;;1.90;;
6207;SDS011;3137;51.550;7.060;2022-10-16T09:06:30;2.63;;;2.63;;
6207;SDS011;3137;51.550;7.060;2022-10-16T09:14:05;7.40;;;2.37;;
6207;SDS011;3137;51.550;7.060;2022-10-16T09:16:46;4.47;;;2.03;;
6207;SDS011;3137;51.550;7.060;2022-10-16T09:19:29;2.23;;;2.13;;
6207;SDS011;3137;51.550;7.060;2022-10-16T09:22:09;4.30;;;2.30;;
6207;SDS011;3137;51.550;7.060;2022-10-16T09:24:36;2.70;;;2.60;;
6207;SDS011;3137;51.550;7.060;2022-10-16T09:27:03;2.70;;;2.70;;
6207;SDS011;3137;51.550;7.060;2022-10-16T09:29:29;7.97;;;2.40;;
6207;SDS011;3137;51.550;7.060;2022-10-16T09:31:55;3.00;;;2.47;;
6207;SDS011;3137;51.550;7.060;2022-10-16T09:34:30;3.53;;;2.60;;
6207;SDS011;3137;51.550;7.060;2022-10-16T09:36:59;6.73;;;2.40;;
6207;SDS011;3137;51.550;7.060;2022-10-16T09:39:30;2.83;;;2.73;;
6207;SDS011;3137;51.550;7.060;2022-10-16T09:41:56;2.93;;;2.53;;
6207;SDS011;3137;51.550;7.060;2022-10-16T09:44:23;2.43;;;2.33;;
6207;SDS011;3137;51.550;7.060;2022-10-16T09:47:03;2.40;;;2.20;;
6207;SDS011;3137;51.550;7.060;2022-10-16T09:49:30;2.23;;;2.07;;
6207;SDS011;3137;51.550;7.060;2022-10-16T09:52:06;1.80;;;1.80;;
6207;SDS011;3137;51.550;7.060;2022-10-16T09:54:37;3.03;;;2.17;;
6207;SDS011;3137;51.550;7.060;2022-10-16T09:57:14;2.17;;;2.13;;
6207;SDS011;3137;51.550;7.060;2022-10-16T09:59:48;2.30;;;2.10;;
6207;SDS011;3137;51.550;7.060;2022-10-16T10:02:17;2.43;;;2.43;;
6207;SDS011;3137;51.550;7.060;2022-10-16T10:04:52;2.33;;;1.90;;
6207;SDS011;3137;51.550;7.060;2022-10-16T10:07:23;1.97;;;1.97;;
6207;SDS011;3137;51.550;7.060;2022-10-16T10:09:59;2.43;;;2.33;;
6207;SDS011;3137;51.550;7.060;2022-10-16T10:12:27;2.27;;;2.17;;
6207;SDS011;3137;51.550;7.060;2022-10-16T10:14:57;2.43;;;2.33;;
6207;SDS011;3137;51.550;7.060;2022-10-16T10:17:29;2.10;;;2.00;;
6207;SDS011;3137;51.550;7.060;2022-10-16T10:22:44;1.43;;;1.43;;
6207;SDS011;3137;51.550;7.060;2022-10-16T10:27:39;2.23;;;2.17;;
6207;SDS011;3137;51.550;7.060;2022-10-16T10:30:15;2.33;;;2.33;;
6207;SDS011;3137;51.550;7.060;2022-10-16T10:32:53;1.67;;;1.67;;
6207;SDS011;3137;51.550;7.060;2022-10-16T10:35:42;1.90;;;1.80;;
6207;SDS011;3137;51.550;7.060;2022-10-16T10:38:20;1.93;;;1.83;;
6207;SDS011;3137;51.550;7.060;2022-10-16T11:06:00;1.67;;;1.67;;
6207;SDS011;3137;51.550;7.060;2022-10-16T11:11:32;1.63;;;1.63;;
6207;SDS011;3137;51.550;7.060;2022-10-16T11:16:42;2.07;;;1.97;;
6207;SDS011;3137;51.550;7.060;2022-10-16T11:19:14;1.53;;;1.50;;
6207;SDS011;3137;51.550;7.060;2022-10-16T11:22:10;3.60;;;2.50;;
6207;SDS011;3137;51.550;7.060;2022-10-16T11:27:39;2.17;;;2.07;;
6207;SDS011;3137;51.550;7.060;2022-10-16T11:30:30;2.30;;;2.10;;
6207;SDS011;3137;51.550;7.060;2022-10-16T11:35:47;1.63;;;1.60;;
6207;SDS011;3137;51.550;7.060;2022-10-16T11:43:58;1.87;;;1.70;;
6207;SDS011;3137;51.550;7.060;2022-10-16T11:46:36;1.83;;;1.83;;
6207;SDS011;3137;51.550;7.060;2022-10-16T11:49:26;1.73;;;1.60;;
6207;SDS011;3137;51.550;7.060;2022-10-16T11:51:59;1.90;;;1.80;;
6207;SDS011;3137;51.550;7.060;2022-10-16T11:54:35;3.23;;;1.80;;
6207;SDS011;3137;51.550;7.060;2022-10-16T11:57:15;1.40;;;1.40;;
6207;SDS011;3137;51.550;7.060;2022-10-16T12:05:44;1.60;;;1.60;;
6207;SDS011;3137;51.550;7.060;2022-10-16T12:10:37;3.10;;;1.70;;
6207;SDS011;3137;51.550;7.060;2022-10-16T12:18:39;3.00;;;1.37;;
6207;SDS011;3137;51.550;7.060;2022-10-16T12:21:07;1.87;;;1.83;;
6207;SDS011;3137;51.550;7.060;2022-10-16T12:23:38;1.03;;;1.03;;
6207;SDS011;3137;51.550;7.060;2022-10-16T12:26:13;1.67;;;1.67;;
6207;SDS011;3137;51.550;7.060;2022-10-16T12:28:39;2.87;;;2.67;;
6207;SDS011;3137;51.550;7.060;2022-10-16T12:31:07;1.73;;;1.70;;
6207;SDS011;3137;51.550;7.060;2022-10-16T12:33:36;1.87;;;1.77;;
6207;SDS011;3137;51.550;7.060;2022-10-16T12:36:16;2.20;;;2.20;;
6207;SDS011;3137;51.550;7.060;2022-10-16T12:39:01;2.00;;;2.00;;
6207;SDS011;3137;51.550;7.060;2022-10-16T12:41:32;2.30;;;2.10;;
6207;SDS011;3137;51.550;7.060;2022-10-16T12:44:01;1.77;;;1.67;;
6207;SDS011;3137;51.550;7.060;2022-10-16T12:49:04;6.83;;;1.67;;
6207;SDS011;3137;51.550;7.060;2022-10-16T12:51:34;2.10;;;2.00;;
6207;SDS011;3137;51.550;7.060;2022-10-16T12:54:03;1.60;;;1.60;;
6207;SDS011;3137;51.550;7.060;2022-10-16T13:07:26;1.50;;;1.40;;
6207;SDS011;3137;51.550;7.060;2022-10-16T13:15:37;3.63;;;2.87;;
6207;SDS011;3137;51.550;7.060;2022-10-16T13:18:16;2.40;;;2.27;;
6207;SDS011;3137;51.550;7.060;2022-10-16T13:23:25;4.90;;;2.67;;
6207;SDS011;3137;51.550;7.060;2022-10-16T13:26:13;2.37;;;2.27;;
6207;SDS011;3137;51.550;7.060;2022-10-16T13:28:48;4.90;;;2.23;;
6207;SDS011;3137;51.550;7.060;2022-10-16T13:31:17;2.57;;;2.37;;
6207;SDS011;3137;51.550;7.060;2022-10-16T13:33:46;2.00;;;2.00;;
6207;SDS011;3137;51.550;7.060;2022-10-16T13:36:24;2.47;;;2.47;;
6207;SDS011;3137;51.550;7.060;2022-10-16T13:39:03;7.27;;;2.20;;
6207;SDS011;3137;51.550;7.060;2022-10-16T13:41:57;2.13;;;2.13;;
6207;SDS011;3137;51.550;7.060;2022-10-16T13:44:31;2.23;;;2.23;;
6207;SDS011;3137;51.550;7.060;2022-10-16T13:47:03;2.43;;;2.30;;
6207;SDS011;3137;51.550;7.060;2022-10-16T13:49:29;3.57;;;2.20;;
6207;SDS011;3137;51.550;7.060;2022-10-16T13:51:57;2.20;;;2.10;;
6207;SDS011;3137;51.550;7.060;2022-10-16T13:54:24;1.53;;;1.53;;
6207;SDS011;3137;51.550;7.060;2022-10-16T13:56:52;1.80;;;1.80;;
6207;SDS011;3137;51.550;7.060;2022-10-16T13:59:34;2.00;;;2.00;;
6207;SDS011;3137;51.550;7.060;2022-10-16T14:02:15;1.70;;;1.70;;
6207;SDS011;3137;51.550;7.060;2022-10-16T14:04:43;1.17;;;1.17;;
6207;SDS011;3137;51.550;7.060;2022-10-16T14:07:21;1.27;;;1.27;;
6207;SDS011;3137;51.550;7.060;2022-10-16T14:09:51;1.30;;;1.30;;
6207;SDS011;3137;51.550;7.060;2022-10-16T14:12:20;11.27;;;1.60;;
6207;SDS011;3137;51.550;7.060;2022-10-16T14:14:53;1.63;;;1.63;;
6207;SDS011;3137;51.550;7.060;2022-10-16T14:17:22;1.30;;;1.27;;
6207;SDS011;3137;51.550;7.060;2022-10-16T14:19:50;4.97;;;1.73;;
6207;SDS011;3137;51.550;7.060;2022-10-16T14:24:58;1.50;;;1.40;;
6207;SDS011;3137;51.550;7.060;2022-10-16T14:27:31;1.23;;;1.20;;
6207;SDS011;3137;51.550;7.060;2022-10-16T14:30:19;3.10;;;1.33;;
6207;SDS011;3137;51.550;7.060;2022-10-16T14:33:02;1.50;;;1.50;;
6207;SDS011;3137;51.550;7.060;2022-10-16T14:35:31;1.20;;;1.20;;
6207;SDS011;3137;51.550;7.060;2022-10-16T14:37:58;1.60;;;1.60;;
6207;SDS011;3137;51.550;7.060;2022-10-16T14:40:27;1.50;;;1.50;;
6207;SDS011;3137;51.550;7.060;2022-10-16T14:42:56;1.40;;;1.40;;
6207;SDS011;3137;51.550;7.060;2022-10-16T14:45:24;1.50;;;1.50;;
6207;SDS011;3137;51.550;7.060;2022-10-16T14:47:53;4.80;;;1.57;;
6207;SDS011;3137;51.550;7.060;2022-10-16T14:50:19;1.60;;;1.60;;
6207;SDS011;3137;51.550;7.060;2022-10-16T14:52:46;1.90;;;1.80;;
6207;SDS011;3137;51.550;7.060;2022-10-16T14:55:12;2.40;;;1.43;;
6207;SDS011;3137;51.550;7.060;2022-10-16T14:57:39;1.50;;;1.50;;
6207;SDS011;3137;51.550;7.060;2022-10-16T15:00:16;3.40;;;1.13;;
6207;SDS011;3137;51.550;7.060;2022-10-16T15:02:43;1.30;;;1.30;;
6207;SDS011;3137;51.550;7.060;2022-10-16T15:05:12;1.57;;;1.53;;
6207;SDS011;3137;51.550;7.060;2022-10-16T15:07:38;3.13;;;1.90;;
6207;SDS011;3137;51.550;7.060;2022-10-16T15:10:04;1.90;;;1.90;;
6207;SDS011;3137;51.550;7.060;2022-10-16T15:12:31;2.00;;;2.00;;
6207;SDS011;3137;51.550;7.060;2022-10-16T15:14:58;1.40;;;1.40;;
6207;SDS011;3137;51.550;7.060;2022-10-16T15:17:24;1.40;;;1.40;;
6207;SDS011;3137;51.550;7.060;2022-10-16T15:19:51;1.57;;;1.57;;
6207;SDS011;3137;51.550;7.060;2022-10-16T15:22:18;1.30;;;1.30;;
6207;SDS011;3137;51.550;7.060;2022-10-16T15:24:44;1.27;;;1.27;;
6207;SDS011;3137;51.550;7.060;2022-10-16T15:27:10;1.30;;;1.30;;
6207;SDS011;3137;51.550;7.060;2022-10-16T15:29:37;1.57;;;1.57;;
6207;SDS011;3137;51.550;7.060;2022-10-16T15:32:03;1.77;;;1.67;;
6207;SDS011;3137;51.550;7.060;2022-10-16T15:34:30;1.77;;;1.67;;
6207;SDS011;3137;51.550;7.060;2022-10-16T15:36:56;1.40;;;1.40;;
6207;SDS011;3137;51.550;7.060;2022-10-16T15:39:23;1.57;;;1.57;;
6207;SDS011;3137;51.550;7.060;2022-10-16T15:41:50;2.13;;;2.03;;
6207;SDS011;3137;51.550;7.060;2022-10-16T15:44:17;2.00;;;2.00;;
6207;SDS011;3137;51.550;7.060;2022-10-16T15:46:43;3.03;;;1.50;;
6207;SDS011;3137;51.550;7.060;2022-10-16T15:49:10;2.47;;;1.97;;
6207;SDS011;3137;51.550;7.060;2022-10-16T15:51:38;1.90;;;1.50;;
6207;SDS011;3137;51.550;7.060;2022-10-16T15:54:04;1.57;;;1.57;;
6207;SDS011;3137;51.550;7.060;2022-10-16T15:56:31;2.77;;;1.57;;
6207;SDS011;3137;51.550;7.060;2022-10-16T15:58:59;9.63;;;1.40;;
6207;SDS011;3137;51.550;7.060;2022-10-16T16:01:27;1.20;;;1.20;;
6207;SDS011;3137;51.550;7.060;2022-10-16T16:03:55;1.57;;;1.57;;
6207;SDS011;3137;51.550;7.060;2022-10-16T16:06:22;1.70;;;1.70;;
6207;SDS011;3137;51.550;7.060;2022-10-16T16:08:51;1.50;;;1.50;;
6207;SDS011;3137;51.550;7.060;2022-10-16T16:11:18;2.07;;;2.03;;
6207;SDS011;3137;51.550;7.060;2022-10-16T16:13:45;1.60;;;1.60;;
6207;SDS011;3137;51.550;7.060;2022-10-16T16:16:13;1.73;;;1.73;;
6207;SDS011;3137;51.550;7.060;2022-10-16T16:18:41;1.60;;;1.60;;
6207;SDS011;3137;51.550;7.060;2022-10-16T16:21:10;1.93;;;1.90;;
6207;SDS011;3137;51.550;7.060;2022-10-16T16:23:38;2.10;;;2.07;;
6207;SDS011;3137;51.550;7.060;2022-10-16T16:26:09;2.00;;;1.60;;
6207;SDS011;3137;51.550;7.060;2022-10-16T16:28:36;1.87;;;1.87;;
6207;SDS011;3137;51.550;7.060;2022-10-16T16:31:04;6.03;;;2.00;;
6207;SDS011;3137;51.550;7.060;2022-10-16T16:33:30;2.40;;;1.90;;
6207;SDS011;3137;51.550;7.060;2022-10-16T16:35:58;6.37;;;1.53;;
6207;SDS011;3137;51.550;7.060;2022-10-16T16:38:25;2.33;;;2.23;;
6207;SDS011;3137;51.550;7.060;2022-10-16T16:40:52;3.07;;;1.90;;
6207;SDS011;3137;51.550;7.060;2022-10-16T16:43:25;1.50;;;1.50;;
6207;SDS011;3137;51.550;7.060;2022-10-16T16:45:51;2.03;;;1.90;;
6207;SDS011;3137;51.550;7.060;2022-10-16T16:48:19;2.40;;;2.37;;
6207;SDS011;3137;51.550;7.060;2022-10-16T16:50:45;6.90;;;2.07;;
6207;SDS011;3137;51.550;7.060;2022-10-16T16:53:12;2.03;;;2.03;;
6207;SDS011;3137;51.550;7.060;2022-10-16T16:55:38;1.70;;;1.60;;
6207;SDS011;3137;51.550;7.060;2022-10-16T16:58:05;2.90;;;2.70;;
6207;SDS011;3137;51.550;7.060;2022-10-16T17:00:31;2.53;;;2.23;;
6207;SDS011;3137;51.550;7.060;2022-10-16T17:02:57;2.33;;;2.33;;
6207;SDS011;3137;51.550;7.060;2022-10-16T17:05:24;2.80;;;2.50;;
6207;SDS011;3137;51.550;7.060;2022-10-16T17:07:50;2.70;;;2.70;;
6207;SDS011;3137;51.550;7.060;2022-10-16T17:10:17;2.47;;;2.47;;
6207;SDS011;3137;51.550;7.060;2022-10-16T17:12:43;5.33;;;4.83;;
6207;SDS011;3137;51.550;7.060;2022-10-16T17:15:10;6.53;;;6.23;;